Nefterudovoz-47m — UFFP — position and weather

sailwx.info

Track history (hours):
 
Tides and Currents Weather Stations Pressure Air Temp Water Temp Dewpoint Dewpoint Depression Visibility Wind Speed Wind Dir Waves Ship Positions

Nefterudovoz-47m

Last reported at 2018-Apr-20 23:36 UTC. Time now 2018-Apr-27 01:02 UTC.
Position N 45°30' E 036°45'.

Length 119 m; draft 2.6 m.

Type: Cargo ship. MMSI: 273347800.

Date/timePositionNaut miles runAvg speedWind from/ knotsBaromVisibWave heightAir tempDewpointWater temp
2018-Apr-20 23:36N 45°30' E 036°45'1 7.5
2018-Apr-20 23:28N 45°29' E 036°44'4 7.1
2018-Apr-20 22:55N 45°25' E 036°42'3 7.0
2018-Apr-20 22:30N 45°23' E 036°41'2 4.9
2018-Apr-20 22:00N 45°21' E 036°39'3 6.9
2018-Apr-20 21:30N 45°19' E 036°34'4 6.9
2018-Apr-20 20:59N 45°18' E 036°29'3 6.4
2018-Apr-20 20:28N 45°15' E 036°29'4 2.1
2018-Apr-20 18:49N 45°11' E 036°29'  
2018-Apr-13 13:25N 45°11' E 036°28'4 7.7
2018-Apr-13 12:57N 45°15' E 036°28'3 6.9
2018-Apr-13 12:29N 45°18' E 036°29'4 8.0
2018-Apr-13 12:00N 45°20' E 036°34'4 8.1
2018-Apr-13 11:30N 45°21' E 036°39'3 5.8
2018-Apr-13 11:00N 45°24' E 036°40'3 5.4
2018-Apr-13 10:29N 45°27' E 036°40'2 4.7
2018-Apr-13 10:00N 45°28' E 036°38'0 0.2
2018-Apr-13 09:28N 45°28' E 036°38'0 0.0
2018-Apr-13 08:58N 45°28' E 036°38'0 0.0
2018-Apr-13 08:28N 45°28' E 036°38'0 0.0
2018-Apr-13 07:58N 45°28' E 036°38'0 0.0
2018-Apr-13 07:28N 45°28' E 036°38'0 0.0
2018-Apr-13 06:58N 45°28' E 036°38'0 0.0
2018-Apr-13 06:28N 45°28' E 036°38'0 0.0
2018-Apr-13 05:58N 45°28' E 036°38'0 0.0
2018-Apr-13 05:28N 45°28' E 036°38'0 0.0
2018-Apr-13 04:58N 45°28' E 036°38'0 0.0
2018-Apr-13 04:25N 45°28' E 036°38'0 0.0
2018-Apr-13 03:58N 45°28' E 036°38'0 0.0
2018-Apr-13 03:16N 45°28' E 036°38'0 0.0
2018-Apr-13 02:34N 45°28' E 036°38'0 0.0
2018-Apr-13 02:19N 45°28' E 036°38'0 0.0
2018-Apr-13 01:58N 45°28' E 036°38'0 0.0
2018-Apr-13 01:28N 45°28' E 036°38'0 0.0
2018-Apr-13 00:58N 45°28' E 036°38'0 0.0
2018-Apr-13 00:28N 45°28' E 036°38'0 0.0
2018-Apr-12 23:58N 45°28' E 036°38'0 0.0
2018-Apr-12 23:25N 45°28' E 036°38'0 0.0
2018-Apr-12 22:58N 45°28' E 036°38'0 0.0
2018-Apr-12 22:28N 45°28' E 036°38'0 0.0
2018-Apr-12 21:52N 45°28' E 036°38'0 0.0
2018-Apr-12 21:22N 45°28' E 036°38'0 0.0
2018-Apr-12 20:58N 45°28' E 036°38'0 0.1
2018-Apr-12 17:19N 45°29' E 036°38'3 6.2
2018-Apr-12 16:52N 45°31' E 036°40'3 7.3
2018-Apr-12 16:28N 45°33' E 036°43'  
Track history (hours):
 
Tides and Currents Weather Stations Pressure Air Temp Water Temp Dewpoint Dewpoint Depression Visibility Wind Speed Wind Dir Waves Ship Positions

Nefterudovoz-47m

Last reported at 2018-Apr-20 23:36 UTC. Time now 2018-Apr-27 01:02 UTC.
Position N 45°30' E 036°45'.

Length 119 m; draft 2.6 m.

Type: Cargo ship. MMSI: 273347800.

Date/timePositionNaut miles runAvg speedWind from/ knotsBaromVisibWave heightAir tempDewpointWater temp
2018-Apr-20 23:36N 45°30' E 036°45'1 7.5
2018-Apr-20 23:28N 45°29' E 036°44'4 7.1
2018-Apr-20 22:55N 45°25' E 036°42'3 7.0
2018-Apr-20 22:30N 45°23' E 036°41'2 4.9
2018-Apr-20 22:00N 45°21' E 036°39'3 6.9
2018-Apr-20 21:30N 45°19' E 036°34'4 6.9
2018-Apr-20 20:59N 45°18' E 036°29'3 6.4
2018-Apr-20 20:28N 45°15' E 036°29'4 2.1
2018-Apr-20 18:49N 45°11' E 036°29'  
2018-Apr-13 13:25N 45°11' E 036°28'4 7.7
2018-Apr-13 12:57N 45°15' E 036°28'3 6.9
2018-Apr-13 12:29N 45°18' E 036°29'4 8.0
2018-Apr-13 12:00N 45°20' E 036°34'4 8.1
2018-Apr-13 11:30N 45°21' E 036°39'3 5.8
2018-Apr-13 11:00N 45°24' E 036°40'3 5.4
2018-Apr-13 10:29N 45°27' E 036°40'2 4.7
2018-Apr-13 10:00N 45°28' E 036°38'0 0.2
2018-Apr-13 09:28N 45°28' E 036°38'0 0.0
2018-Apr-13 08:58N 45°28' E 036°38'0 0.0
2018-Apr-13 08:28N 45°28' E 036°38'0 0.0
2018-Apr-13 07:58N 45°28' E 036°38'0 0.0
2018-Apr-13 07:28N 45°28' E 036°38'0 0.0
2018-Apr-13 06:58N 45°28' E 036°38'0 0.0
2018-Apr-13 06:28N 45°28' E 036°38'0 0.0
2018-Apr-13 05:58N 45°28' E 036°38'0 0.0
2018-Apr-13 05:28N 45°28' E 036°38'0 0.0
2018-Apr-13 04:58N 45°28' E 036°38'0 0.0
2018-Apr-13 04:25N 45°28' E 036°38'0 0.0
2018-Apr-13 03:58N 45°28' E 036°38'0 0.0
2018-Apr-13 03:16N 45°28' E 036°38'0 0.0
2018-Apr-13 02:34N 45°28' E 036°38'0 0.0
2018-Apr-13 02:19N 45°28' E 036°38'0 0.0
2018-Apr-13 01:58N 45°28' E 036°38'0 0.0
2018-Apr-13 01:28N 45°28' E 036°38'0 0.0
2018-Apr-13 00:58N 45°28' E 036°38'0 0.0
2018-Apr-13 00:28N 45°28' E 036°38'0 0.0
2018-Apr-12 23:58N 45°28' E 036°38'0 0.0
2018-Apr-12 23:25N 45°28' E 036°38'0 0.0
2018-Apr-12 22:58N 45°28' E 036°38'0 0.0
2018-Apr-12 22:28N 45°28' E 036°38'0 0.0
2018-Apr-12 21:52N 45°28' E 036°38'0 0.0
2018-Apr-12 21:22N 45°28' E 036°38'0 0.0
2018-Apr-12 20:58N 45°28' E 036°38'0 0.1
2018-Apr-12 17:19N 45°29' E 036°38'3 6.2
2018-Apr-12 16:52N 45°31' E 036°40'3 7.3
2018-Apr-12 16:28N 45°33' E 036°43'  

Dump ship's entire track history